sensor_id;sensor_type;location;lat;lon;timestamp;P1;durP1;ratioP1;P2;durP2;ratioP2
20391;SDS011;10355;53.688;10.078;2024-03-23T00:54:56;11.57;;;2.03;;
20391;SDS011;10355;53.688;10.078;2024-03-23T00:57:38;12.50;;;2.42;;
20391;SDS011;10355;53.688;10.078;2024-03-23T01:00:19;10.32;;;1.83;;
20391;SDS011;10355;53.688;10.078;2024-03-23T01:03:01;8.07;;;2.08;;
20391;SDS011;10355;53.688;10.078;2024-03-23T01:05:41;11.48;;;2.03;;
20391;SDS011;10355;53.688;10.078;2024-03-23T01:08:23;13.50;;;2.20;;
20391;SDS011;10355;53.688;10.078;2024-03-23T01:11:05;9.52;;;1.95;;
20391;SDS011;10355;53.688;10.078;2024-03-23T01:13:47;9.82;;;2.28;;
20391;SDS011;10355;53.688;10.078;2024-03-23T01:16:28;11.05;;;2.03;;
20391;SDS011;10355;53.688;10.078;2024-03-23T01:19:09;6.60;;;1.75;;
20391;SDS011;10355;53.688;10.078;2024-03-23T01:21:50;8.45;;;1.73;;
20391;SDS011;10355;53.688;10.078;2024-03-23T01:24:32;13.95;;;2.65;;
20391;SDS011;10355;53.688;10.078;2024-03-23T01:27:14;8.27;;;2.03;;
20391;SDS011;10355;53.688;10.078;2024-03-23T01:29:56;9.45;;;1.98;;
20391;SDS011;10355;53.688;10.078;2024-03-23T01:32:37;6.63;;;1.90;;
20391;SDS011;10355;53.688;10.078;2024-03-23T01:35:19;9.73;;;2.20;;
20391;SDS011;10355;53.688;10.078;2024-03-23T01:38:00;10.68;;;1.75;;
20391;SDS011;10355;53.688;10.078;2024-03-23T01:40:41;10.18;;;1.77;;
20391;SDS011;10355;53.688;10.078;2024-03-23T01:43:23;7.97;;;1.67;;
20391;SDS011;10355;53.688;10.078;2024-03-23T01:46:05;8.95;;;1.75;;
20391;SDS011;10355;53.688;10.078;2024-03-23T01:48:47;9.48;;;1.73;;
20391;SDS011;10355;53.688;10.078;2024-03-23T01:51:28;8.20;;;1.65;;
20391;SDS011;10355;53.688;10.078;2024-03-23T01:54:09;8.65;;;1.70;;
20391;SDS011;10355;53.688;10.078;2024-03-23T01:56:51;6.45;;;1.48;;
20391;SDS011;10355;53.688;10.078;2024-03-23T01:59:34;7.40;;;1.95;;
20391;SDS011;10355;53.688;10.078;2024-03-23T02:02:16;8.70;;;1.95;;
20391;SDS011;10355;53.688;10.078;2024-03-23T02:04:59;9.35;;;1.90;;
20391;SDS011;10355;53.688;10.078;2024-03-23T02:07:41;7.53;;;1.88;;
20391;SDS011;10355;53.688;10.078;2024-03-23T02:10:22;9.70;;;1.80;;
20391;SDS011;10355;53.688;10.078;2024-03-23T02:13:04;9.27;;;1.75;;
20391;SDS011;10355;53.688;10.078;2024-03-23T02:15:46;10.15;;;1.88;;
20391;SDS011;10355;53.688;10.078;2024-03-23T02:18:28;8.75;;;1.88;;
20391;SDS011;10355;53.688;10.078;2024-03-23T02:21:09;9.10;;;1.70;;
20391;SDS011;10355;53.688;10.078;2024-03-23T02:23:52;8.10;;;1.80;;
20391;SDS011;10355;53.688;10.078;2024-03-23T02:26:33;4.88;;;1.50;;
20391;SDS011;10355;53.688;10.078;2024-03-23T02:29:14;8.38;;;1.60;;
20391;SDS011;10355;53.688;10.078;2024-03-23T02:31:55;10.88;;;1.83;;
20391;SDS011;10355;53.688;10.078;2024-03-23T02:34:39;12.13;;;1.60;;
20391;SDS011;10355;53.688;10.078;2024-03-23T02:37:20;10.55;;;2.30;;
20391;SDS011;10355;53.688;10.078;2024-03-23T02:40:03;9.07;;;1.90;;
20391;SDS011;10355;53.688;10.078;2024-03-23T02:42:44;8.30;;;1.98;;
20391;SDS011;10355;53.688;10.078;2024-03-23T02:45:26;8.02;;;1.48;;
20391;SDS011;10355;53.688;10.078;2024-03-23T02:48:06;7.88;;;1.80;;
20391;SDS011;10355;53.688;10.078;2024-03-23T02:50:48;8.90;;;1.75;;
20391;SDS011;10355;53.688;10.078;2024-03-23T02:53:29;7.60;;;1.63;;
20391;SDS011;10355;53.688;10.078;2024-03-23T02:56:12;8.00;;;1.90;;
20391;SDS011;10355;53.688;10.078;2024-03-23T02:58:56;9.60;;;1.92;;
20391;SDS011;10355;53.688;10.078;2024-03-23T03:01:38;11.02;;;1.70;;
20391;SDS011;10355;53.688;10.078;2024-03-23T03:04:19;9.60;;;1.70;;
20391;SDS011;10355;53.688;10.078;2024-03-23T03:07:00;7.95;;;1.60;;
20391;SDS011;10355;53.688;10.078;2024-03-23T03:09:41;8.35;;;1.63;;
20391;SDS011;10355;53.688;10.078;2024-03-23T03:12:24;10.13;;;2.00;;
20391;SDS011;10355;53.688;10.078;2024-03-23T03:15:06;11.32;;;1.92;;
20391;SDS011;10355;53.688;10.078;2024-03-23T03:17:48;6.70;;;2.00;;
20391;SDS011;10355;53.688;10.078;2024-03-23T03:20:29;9.45;;;1.92;;
20391;SDS011;10355;53.688;10.078;2024-03-23T03:23:12;10.40;;;1.70;;
20391;SDS011;10355;53.688;10.078;2024-03-23T03:25:52;10.05;;;1.95;;
20391;SDS011;10355;53.688;10.078;2024-03-23T03:28:36;8.48;;;1.60;;
20391;SDS011;10355;53.688;10.078;2024-03-23T03:31:17;10.43;;;1.88;;
20391;SDS011;10355;53.688;10.078;2024-03-23T03:33:58;8.27;;;1.65;;
20391;SDS011;10355;53.688;10.078;2024-03-23T03:36:39;8.43;;;1.80;;
20391;SDS011;10355;53.688;10.078;2024-03-23T03:39:21;6.03;;;1.67;;
20391;SDS011;10355;53.688;10.078;2024-03-23T03:42:03;6.95;;;1.60;;
20391;SDS011;10355;53.688;10.078;2024-03-23T03:44:48;8.98;;;1.65;;
20391;SDS011;10355;53.688;10.078;2024-03-23T03:47:29;10.30;;;1.90;;
20391;SDS011;10355;53.688;10.078;2024-03-23T03:50:10;5.47;;;1.58;;
20391;SDS011;10355;53.688;10.078;2024-03-23T03:52:51;11.30;;;1.70;;
20391;SDS011;10355;53.688;10.078;2024-03-23T03:55:33;11.45;;;2.08;;
20391;SDS011;10355;53.688;10.078;2024-03-23T03:58:14;7.65;;;1.75;;
20391;SDS011;10355;53.688;10.078;2024-03-23T04:00:57;10.85;;;1.90;;
20391;SDS011;10355;53.688;10.078;2024-03-23T04:03:38;8.65;;;1.83;;
20391;SDS011;10355;53.688;10.078;2024-03-23T04:06:23;8.80;;;1.77;;
20391;SDS011;10355;53.688;10.078;2024-03-23T04:09:05;5.60;;;1.60;;
20391;SDS011;10355;53.688;10.078;2024-03-23T04:11:47;6.28;;;1.40;;
20391;SDS011;10355;53.688;10.078;2024-03-23T04:14:28;10.13;;;2.17;;
20391;SDS011;10355;53.688;10.078;2024-03-23T04:17:10;6.30;;;1.33;;
20391;SDS011;10355;53.688;10.078;2024-03-23T04:19:52;6.95;;;1.67;;
20391;SDS011;10355;53.688;10.078;2024-03-23T04:22:37;6.03;;;1.63;;
20391;SDS011;10355;53.688;10.078;2024-03-23T04:25:19;14.05;;;1.85;;
20391;SDS011;10355;53.688;10.078;2024-03-23T04:28:00;7.90;;;2.03;;
20391;SDS011;10355;53.688;10.078;2024-03-23T04:30:41;5.57;;;1.60;;
20391;SDS011;10355;53.688;10.078;2024-03-23T04:33:24;8.45;;;1.60;;
20391;SDS011;10355;53.688;10.078;2024-03-23T04:36:05;7.35;;;1.77;;
20391;SDS011;10355;53.688;10.078;2024-03-23T04:38:47;10.77;;;1.95;;
20391;SDS011;10355;53.688;10.078;2024-03-23T04:41:30;9.45;;;2.05;;
20391;SDS011;10355;53.688;10.078;2024-03-23T04:44:12;9.38;;;2.10;;
20391;SDS011;10355;53.688;10.078;2024-03-23T04:46:54;7.97;;;1.60;;
20391;SDS011;10355;53.688;10.078;2024-03-23T04:49:37;9.80;;;2.15;;
20391;SDS011;10355;53.688;10.078;2024-03-23T04:52:19;8.27;;;2.28;;
20391;SDS011;10355;53.688;10.078;2024-03-23T04:55:00;9.85;;;1.73;;
20391;SDS011;10355;53.688;10.078;2024-03-23T04:57:44;7.60;;;1.80;;
20391;SDS011;10355;53.688;10.078;2024-03-23T05:00:25;10.23;;;1.73;;
20391;SDS011;10355;53.688;10.078;2024-03-23T05:03:07;7.53;;;2.00;;
20391;SDS011;10355;53.688;10.078;2024-03-23T05:05:50;7.47;;;2.00;;
20391;SDS011;10355;53.688;10.078;2024-03-23T05:08:30;7.82;;;1.92;;
20391;SDS011;10355;53.688;10.078;2024-03-23T05:11:12;7.40;;;1.65;;
20391;SDS011;10355;53.688;10.078;2024-03-23T05:13:53;7.75;;;1.77;;
20391;SDS011;10355;53.688;10.078;2024-03-23T05:16:35;9.15;;;1.90;;
20391;SDS011;10355;53.688;10.078;2024-03-23T05:19:16;11.30;;;2.13;;
20391;SDS011;10355;53.688;10.078;2024-03-23T05:21:59;9.93;;;1.95;;
20391;SDS011;10355;53.688;10.078;2024-03-23T05:24:40;5.57;;;1.70;;
20391;SDS011;10355;53.688;10.078;2024-03-23T05:27:21;8.73;;;1.80;;
20391;SDS011;10355;53.688;10.078;2024-03-23T05:30:02;10.68;;;2.25;;
20391;SDS011;10355;53.688;10.078;2024-03-23T05:32:46;6.70;;;1.63;;
20391;SDS011;10355;53.688;10.078;2024-03-23T05:35:28;6.60;;;1.75;;
20391;SDS011;10355;53.688;10.078;2024-03-23T05:38:10;9.43;;;1.77;;
20391;SDS011;10355;53.688;10.078;2024-03-23T05:40:54;9.32;;;1.70;;
20391;SDS011;10355;53.688;10.078;2024-03-23T05:43:35;10.35;;;2.28;;
20391;SDS011;10355;53.688;10.078;2024-03-23T05:46:17;6.00;;;1.70;;
20391;SDS011;10355;53.688;10.078;2024-03-23T05:49:00;11.15;;;1.98;;
20391;SDS011;10355;53.688;10.078;2024-03-23T05:51:42;10.35;;;1.88;;
20391;SDS011;10355;53.688;10.078;2024-03-23T05:54:24;6.20;;;1.67;;
20391;SDS011;10355;53.688;10.078;2024-03-23T05:57:07;5.05;;;1.80;;
20391;SDS011;10355;53.688;10.078;2024-03-23T05:59:48;9.43;;;1.92;;
20391;SDS011;10355;53.688;10.078;2024-03-23T06:02:29;7.53;;;2.00;;
20391;SDS011;10355;53.688;10.078;2024-03-23T06:05:11;7.95;;;1.80;;
20391;SDS011;10355;53.688;10.078;2024-03-23T06:07:52;9.90;;;2.05;;
20391;SDS011;10355;53.688;10.078;2024-03-23T06:10:35;10.73;;;1.70;;
20391;SDS011;10355;53.688;10.078;2024-03-23T06:13:16;6.32;;;1.75;;
20391;SDS011;10355;53.688;10.078;2024-03-23T06:15:58;7.47;;;1.88;;
20391;SDS011;10355;53.688;10.078;2024-03-23T06:18:39;6.65;;;1.35;;
20391;SDS011;10355;53.688;10.078;2024-03-23T06:21:21;8.32;;;1.70;;
20391;SDS011;10355;53.688;10.078;2024-03-23T06:24:04;10.85;;;2.17;;
20391;SDS011;10355;53.688;10.078;2024-03-23T06:26:47;8.02;;;1.98;;
20391;SDS011;10355;53.688;10.078;2024-03-23T06:29:28;5.93;;;1.65;;
20391;SDS011;10355;53.688;10.078;2024-03-23T06:32:10;7.32;;;1.70;;
20391;SDS011;10355;53.688;10.078;2024-03-23T06:34:51;11.30;;;2.10;;
20391;SDS011;10355;53.688;10.078;2024-03-23T06:37:33;8.60;;;1.88;;
20391;SDS011;10355;53.688;10.078;2024-03-23T06:40:13;9.55;;;1.80;;
20391;SDS011;10355;53.688;10.078;2024-03-23T06:42:56;8.80;;;1.70;;
20391;SDS011;10355;53.688;10.078;2024-03-23T06:45:37;11.07;;;1.90;;
20391;SDS011;10355;53.688;10.078;2024-03-23T06:48:19;7.68;;;1.65;;
20391;SDS011;10355;53.688;10.078;2024-03-23T06:51:00;12.88;;;2.05;;
20391;SDS011;10355;53.688;10.078;2024-03-23T06:53:42;12.70;;;2.20;;
20391;SDS011;10355;53.688;10.078;2024-03-23T06:56:22;9.50;;;1.73;;
20391;SDS011;10355;53.688;10.078;2024-03-23T06:59:06;7.85;;;1.83;;
20391;SDS011;10355;53.688;10.078;2024-03-23T07:01:47;7.85;;;1.92;;
20391;SDS011;10355;53.688;10.078;2024-03-23T07:04:28;10.60;;;1.80;;
20391;SDS011;10355;53.688;10.078;2024-03-23T07:07:10;11.43;;;2.00;;
20391;SDS011;10355;53.688;10.078;2024-03-23T07:09:52;10.57;;;1.63;;
20391;SDS011;10355;53.688;10.078;2024-03-23T07:12:33;10.95;;;1.83;;
20391;SDS011;10355;53.688;10.078;2024-03-23T07:15:16;9.05;;;1.85;;
20391;SDS011;10355;53.688;10.078;2024-03-23T07:17:57;4.88;;;1.63;;
20391;SDS011;10355;53.688;10.078;2024-03-23T07:20:39;9.52;;;1.77;;
20391;SDS011;10355;53.688;10.078;2024-03-23T07:23:19;6.50;;;1.52;;
20391;SDS011;10355;53.688;10.078;2024-03-23T07:26:02;10.73;;;2.08;;
20391;SDS011;10355;53.688;10.078;2024-03-23T07:28:43;7.53;;;1.83;;
20391;SDS011;10355;53.688;10.078;2024-03-23T07:31:27;5.13;;;1.38;;
20391;SDS011;10355;53.688;10.078;2024-03-23T07:34:08;10.95;;;1.83;;
20391;SDS011;10355;53.688;10.078;2024-03-23T07:36:50;9.65;;;1.50;;
20391;SDS011;10355;53.688;10.078;2024-03-23T07:39:31;7.95;;;1.55;;
20391;SDS011;10355;53.688;10.078;2024-03-23T07:42:14;8.40;;;2.05;;
20391;SDS011;10355;53.688;10.078;2024-03-23T07:44:55;7.22;;;1.58;;
20391;SDS011;10355;53.688;10.078;2024-03-23T07:47:38;9.65;;;1.75;;
20391;SDS011;10355;53.688;10.078;2024-03-23T07:50:19;9.70;;;2.38;;
20391;SDS011;10355;53.688;10.078;2024-03-23T07:53:01;8.98;;;1.92;;
20391;SDS011;10355;53.688;10.078;2024-03-23T07:55:42;7.70;;;1.90;;
20391;SDS011;10355;53.688;10.078;2024-03-23T07:58:24;8.77;;;1.95;;
20391;SDS011;10355;53.688;10.078;2024-03-23T08:01:05;9.13;;;1.40;;
20391;SDS011;10355;53.688;10.078;2024-03-23T08:03:49;9.23;;;1.70;;
20391;SDS011;10355;53.688;10.078;2024-03-23T08:06:30;9.52;;;1.77;;
20391;SDS011;10355;53.688;10.078;2024-03-23T08:09:12;8.43;;;1.77;;
20391;SDS011;10355;53.688;10.078;2024-03-23T08:11:53;12.57;;;1.88;;
20391;SDS011;10355;53.688;10.078;2024-03-23T08:14:35;9.40;;;1.88;;
20391;SDS011;10355;53.688;10.078;2024-03-23T08:17:15;6.95;;;1.80;;
20391;SDS011;10355;53.688;10.078;2024-03-23T08:19:58;8.90;;;1.70;;
20391;SDS011;10355;53.688;10.078;2024-03-23T08:22:39;5.88;;;1.65;;
20391;SDS011;10355;53.688;10.078;2024-03-23T08:25:21;7.50;;;1.60;;
20391;SDS011;10355;53.688;10.078;2024-03-23T08:28:02;9.85;;;1.83;;
20391;SDS011;10355;53.688;10.078;2024-03-23T08:30:44;8.07;;;1.70;;
20391;SDS011;10355;53.688;10.078;2024-03-23T08:33:25;9.05;;;1.90;;
20391;SDS011;10355;53.688;10.078;2024-03-23T08:36:08;8.30;;;1.63;;
20391;SDS011;10355;53.688;10.078;2024-03-23T08:38:49;11.52;;;1.73;;
20391;SDS011;10355;53.688;10.078;2024-03-23T08:41:34;6.43;;;1.50;;
20391;SDS011;10355;53.688;10.078;2024-03-23T08:44:15;8.38;;;1.70;;
20391;SDS011;10355;53.688;10.078;2024-03-23T08:46:57;8.02;;;1.60;;
20391;SDS011;10355;53.688;10.078;2024-03-23T08:49:37;8.40;;;1.50;;
20391;SDS011;10355;53.688;10.078;2024-03-23T08:52:22;7.75;;;1.65;;
20391;SDS011;10355;53.688;10.078;2024-03-23T08:55:03;6.88;;;1.40;;
20391;SDS011;10355;53.688;10.078;2024-03-23T08:57:45;7.32;;;1.58;;
20391;SDS011;10355;53.688;10.078;2024-03-23T09:00:26;8.93;;;1.80;;
20391;SDS011;10355;53.688;10.078;2024-03-23T09:03:08;7.20;;;1.52;;
20391;SDS011;10355;53.688;10.078;2024-03-23T09:05:49;6.45;;;1.30;;
20391;SDS011;10355;53.688;10.078;2024-03-23T09:08:32;10.25;;;1.73;;
20391;SDS011;10355;53.688;10.078;2024-03-23T09:11:13;6.50;;;1.20;;
20391;SDS011;10355;53.688;10.078;2024-03-23T09:13:55;5.22;;;1.15;;
20391;SDS011;10355;53.688;10.078;2024-03-23T09:16:36;5.75;;;1.63;;
20391;SDS011;10355;53.688;10.078;2024-03-23T09:19:17;6.35;;;1.40;;
20391;SDS011;10355;53.688;10.078;2024-03-23T09:21:58;8.07;;;1.25;;
20391;SDS011;10355;53.688;10.078;2024-03-23T09:24:42;9.30;;;2.08;;
20391;SDS011;10355;53.688;10.078;2024-03-23T09:27:22;6.25;;;1.50;;
20391;SDS011;10355;53.688;10.078;2024-03-23T09:30:05;5.65;;;1.50;;
20391;SDS011;10355;53.688;10.078;2024-03-23T09:32:46;7.65;;;1.48;;
20391;SDS011;10355;53.688;10.078;2024-03-23T09:35:28;5.32;;;1.30;;
20391;SDS011;10355;53.688;10.078;2024-03-23T09:38:09;4.82;;;1.08;;
20391;SDS011;10355;53.688;10.078;2024-03-23T09:40:52;6.63;;;1.35;;
20391;SDS011;10355;53.688;10.078;2024-03-23T09:43:33;5.05;;;1.20;;
20391;SDS011;10355;53.688;10.078;2024-03-23T09:46:15;5.00;;;1.27;;
20391;SDS011;10355;53.688;10.078;2024-03-23T09:48:56;7.35;;;1.50;;
20391;SDS011;10355;53.688;10.078;2024-03-23T09:51:39;7.05;;;1.17;;
20391;SDS011;10355;53.688;10.078;2024-03-23T09:54:19;5.43;;;1.00;;
20391;SDS011;10355;53.688;10.078;2024-03-23T09:57:04;5.05;;;1.08;;
20391;SDS011;10355;53.688;10.078;2024-03-23T09:59:46;7.97;;;1.35;;
20391;SDS011;10355;53.688;10.078;2024-03-23T10:02:28;7.53;;;1.30;;
20391;SDS011;10355;53.688;10.078;2024-03-23T10:05:19;6.10;;;1.20;;
20391;SDS011;10355;53.688;10.078;2024-03-23T10:08:02;6.78;;;1.35;;
20391;SDS011;10355;53.688;10.078;2024-03-23T10:10:57;7.80;;;1.15;;
20391;SDS011;10355;53.688;10.078;2024-03-23T10:13:41;9.32;;;1.30;;
20391;SDS011;10355;53.688;10.078;2024-03-23T10:16:22;8.70;;;1.45;;
20391;SDS011;10355;53.688;10.078;2024-03-23T10:19:08;6.05;;;1.42;;
20391;SDS011;10355;53.688;10.078;2024-03-23T10:21:52;7.47;;;1.50;;
20391;SDS011;10355;53.688;10.078;2024-03-23T10:24:34;6.55;;;1.10;;
20391;SDS011;10355;53.688;10.078;2024-03-23T10:27:15;3.88;;;0.90;;
20391;SDS011;10355;53.688;10.078;2024-03-23T10:30:07;6.07;;;1.40;;
20391;SDS011;10355;53.688;10.078;2024-03-23T10:32:48;4.43;;;1.40;;
20391;SDS011;10355;53.688;10.078;2024-03-23T10:35:31;5.88;;;0.98;;
20391;SDS011;10355;53.688;10.078;2024-03-23T10:38:12;3.88;;;0.90;;
20391;SDS011;10355;53.688;10.078;2024-03-23T10:40:54;2.90;;;0.90;;
20391;SDS011;10355;53.688;10.078;2024-03-23T10:43:36;3.65;;;0.80;;
20391;SDS011;10355;53.688;10.078;2024-03-23T10:46:19;3.03;;;0.95;;
20391;SDS011;10355;53.688;10.078;2024-03-23T10:49:00;4.57;;;1.02;;
20391;SDS011;10355;53.688;10.078;2024-03-23T10:51:42;3.42;;;1.30;;
20391;SDS011;10355;53.688;10.078;2024-03-23T10:54:24;6.55;;;1.20;;
20391;SDS011;10355;53.688;10.078;2024-03-23T10:57:06;3.70;;;1.00;;
20391;SDS011;10355;53.688;10.078;2024-03-23T10:59:49;5.13;;;0.93;;
20391;SDS011;10355;53.688;10.078;2024-03-23T11:02:32;6.38;;;0.93;;
20391;SDS011;10355;53.688;10.078;2024-03-23T11:08:29;3.13;;;0.85;;
20391;SDS011;10355;53.688;10.078;2024-03-23T11:14:12;4.55;;;1.00;;
20391;SDS011;10355;53.688;10.078;2024-03-23T11:17:08;6.10;;;1.00;;
20391;SDS011;10355;53.688;10.078;2024-03-23T11:19:54;5.28;;;0.90;;
20391;SDS011;10355;53.688;10.078;2024-03-23T11:22:41;6.75;;;1.00;;
20391;SDS011;10355;53.688;10.078;2024-03-23T11:25:23;6.60;;;0.93;;
20391;SDS011;10355;53.688;10.078;2024-03-23T11:28:10;7.13;;;1.15;;
20391;SDS011;10355;53.688;10.078;2024-03-23T11:30:52;3.88;;;1.00;;
20391;SDS011;10355;53.688;10.078;2024-03-23T11:33:33;4.47;;;0.80;;
20391;SDS011;10355;53.688;10.078;2024-03-23T11:36:20;4.45;;;0.90;;
20391;SDS011;10355;53.688;10.078;2024-03-23T11:39:11;2.78;;;0.80;;
20391;SDS011;10355;53.688;10.078;2024-03-23T11:41:55;3.88;;;0.80;;
20391;SDS011;10355;53.688;10.078;2024-03-23T11:44:36;2.25;;;0.93;;
20391;SDS011;10355;53.688;10.078;2024-03-23T11:47:18;1.75;;;0.43;;
20391;SDS011;10355;53.688;10.078;2024-03-23T11:49:59;2.58;;;0.43;;
20391;SDS011;10355;53.688;10.078;2024-03-23T11:52:42;1.67;;;0.50;;
20391;SDS011;10355;53.688;10.078;2024-03-23T11:55:23;3.00;;;0.70;;
20391;SDS011;10355;53.688;10.078;2024-03-23T11:58:05;1.75;;;0.40;;
20391;SDS011;10355;53.688;10.078;2024-03-23T12:00:49;2.90;;;0.50;;
20391;SDS011;10355;53.688;10.078;2024-03-23T12:03:31;0.95;;;0.55;;
20391;SDS011;10355;53.688;10.078;2024-03-23T12:06:13;4.07;;;0.70;;
20391;SDS011;10355;53.688;10.078;2024-03-23T12:09:06;1.92;;;0.50;;
20391;SDS011;10355;53.688;10.078;2024-03-23T12:11:48;2.65;;;0.45;;
20391;SDS011;10355;53.688;10.078;2024-03-23T12:14:30;1.60;;;0.47;;
20391;SDS011;10355;53.688;10.078;2024-03-23T12:17:12;1.90;;;0.50;;
20391;SDS011;10355;53.688;10.078;2024-03-23T12:19:54;1.20;;;0.40;;
20391;SDS011;10355;53.688;10.078;2024-03-23T12:22:35;1.35;;;0.38;;
20391;SDS011;10355;53.688;10.078;2024-03-23T12:25:18;1.80;;;0.35;;
20391;SDS011;10355;53.688;10.078;2024-03-23T12:27:59;0.30;;;0.30;;
20391;SDS011;10355;53.688;10.078;2024-03-23T12:30:41;1.33;;;0.50;;
20391;SDS011;10355;53.688;10.078;2024-03-23T12:33:22;1.20;;;0.40;;
20391;SDS011;10355;53.688;10.078;2024-03-23T12:36:04;0.70;;;0.50;;
20391;SDS011;10355;53.688;10.078;2024-03-23T12:38:45;0.70;;;0.22;;
20391;SDS011;10355;53.688;10.078;2024-03-23T12:41:28;2.25;;;0.47;;
20391;SDS011;10355;53.688;10.078;2024-03-23T12:44:09;1.10;;;0.40;;
20391;SDS011;10355;53.688;10.078;2024-03-23T12:46:52;1.40;;;0.50;;
20391;SDS011;10355;53.688;10.078;2024-03-23T12:49:33;2.03;;;0.60;;
20391;SDS011;10355;53.688;10.078;2024-03-23T12:52:15;0.63;;;0.40;;
20391;SDS011;10355;53.688;10.078;2024-03-23T12:54:55;1.75;;;0.40;;
20391;SDS011;10355;53.688;10.078;2024-03-23T12:57:39;1.35;;;0.50;;
20391;SDS011;10355;53.688;10.078;2024-03-23T13:00:21;0.75;;;0.70;;
20391;SDS011;10355;53.688;10.078;2024-03-23T13:03:03;0.40;;;0.35;;
20391;SDS011;10355;53.688;10.078;2024-03-23T13:05:51;0.82;;;0.30;;
20391;SDS011;10355;53.688;10.078;2024-03-23T13:08:35;3.30;;;0.38;;
20391;SDS011;10355;53.688;10.078;2024-03-23T13:11:15;1.42;;;0.30;;
20391;SDS011;10355;53.688;10.078;2024-03-23T13:14:00;1.70;;;0.32;;
20391;SDS011;10355;53.688;10.078;2024-03-23T13:16:40;0.45;;;0.45;;
20391;SDS011;10355;53.688;10.078;2024-03-23T13:19:22;0.70;;;0.32;;
20391;SDS011;10355;53.688;10.078;2024-03-23T13:22:07;0.95;;;0.45;;
20391;SDS011;10355;53.688;10.078;2024-03-23T13:24:51;1.83;;;0.50;;
20391;SDS011;10355;53.688;10.078;2024-03-23T13:27:32;1.42;;;0.40;;
20391;SDS011;10355;53.688;10.078;2024-03-23T13:30:15;3.58;;;0.60;;
20391;SDS011;10355;53.688;10.078;2024-03-23T13:32:56;3.47;;;0.68;;
20391;SDS011;10355;53.688;10.078;2024-03-23T13:35:38;1.52;;;0.50;;
20391;SDS011;10355;53.688;10.078;2024-03-23T13:38:19;2.58;;;0.50;;
20391;SDS011;10355;53.688;10.078;2024-03-23T13:41:01;2.42;;;0.55;;
20391;SDS011;10355;53.688;10.078;2024-03-23T13:43:42;1.23;;;0.52;;
20391;SDS011;10355;53.688;10.078;2024-03-23T13:46:25;1.60;;;0.40;;
20391;SDS011;10355;53.688;10.078;2024-03-23T13:49:06;1.77;;;0.50;;
20391;SDS011;10355;53.688;10.078;2024-03-23T13:51:47;3.55;;;0.55;;
20391;SDS011;10355;53.688;10.078;2024-03-23T13:54:28;2.03;;;0.47;;
20391;SDS011;10355;53.688;10.078;2024-03-23T13:57:10;2.53;;;0.47;;
20391;SDS011;10355;53.688;10.078;2024-03-23T13:59:51;0.73;;;0.38;;
20391;SDS011;10355;53.688;10.078;2024-03-23T14:02:34;0.88;;;0.40;;
20391;SDS011;10355;53.688;10.078;2024-03-23T14:05:15;0.93;;;0.40;;
20391;SDS011;10355;53.688;10.078;2024-03-23T14:07:56;1.15;;;0.40;;
20391;SDS011;10355;53.688;10.078;2024-03-23T14:10:40;1.48;;;0.40;;
20391;SDS011;10355;53.688;10.078;2024-03-23T14:13:22;0.88;;;0.47;;
20391;SDS011;10355;53.688;10.078;2024-03-23T14:16:03;1.80;;;0.55;;
20391;SDS011;10355;53.688;10.078;2024-03-23T14:18:47;2.28;;;0.70;;
20391;SDS011;10355;53.688;10.078;2024-03-23T14:21:28;2.47;;;0.65;;
20391;SDS011;10355;53.688;10.078;2024-03-23T14:24:09;1.73;;;0.70;;
20391;SDS011;10355;53.688;10.078;2024-03-23T14:26:50;1.98;;;0.60;;
20391;SDS011;10355;53.688;10.078;2024-03-23T14:29:32;1.52;;;0.60;;
20391;SDS011;10355;53.688;10.078;2024-03-23T14:32:14;3.85;;;0.80;;
20391;SDS011;10355;53.688;10.078;2024-03-23T14:34:58;4.07;;;0.82;;
20391;SDS011;10355;53.688;10.078;2024-03-23T14:37:38;2.90;;;0.70;;
20391;SDS011;10355;53.688;10.078;2024-03-23T14:40:22;2.67;;;0.55;;
20391;SDS011;10355;53.688;10.078;2024-03-23T14:43:03;2.70;;;0.95;;
20391;SDS011;10355;53.688;10.078;2024-03-23T14:45:49;3.15;;;1.02;;
20391;SDS011;10355;53.688;10.078;2024-03-23T14:48:46;5.75;;;0.95;;
20391;SDS011;10355;53.688;10.078;2024-03-23T14:51:29;3.53;;;0.80;;
20391;SDS011;10355;53.688;10.078;2024-03-23T14:54:10;3.95;;;1.00;;
20391;SDS011;10355;53.688;10.078;2024-03-23T14:56:54;1.45;;;0.60;;
20391;SDS011;10355;53.688;10.078;2024-03-23T14:59:36;2.67;;;0.70;;
20391;SDS011;10355;53.688;10.078;2024-03-23T15:02:19;1.88;;;0.82;;
20391;SDS011;10355;53.688;10.078;2024-03-23T15:05:00;5.20;;;0.70;;
20391;SDS011;10355;53.688;10.078;2024-03-23T15:07:44;2.67;;;0.80;;
20391;SDS011;10355;53.688;10.078;2024-03-23T15:10:26;3.35;;;0.70;;
20391;SDS011;10355;53.688;10.078;2024-03-23T15:13:06;2.00;;;0.60;;
20391;SDS011;10355;53.688;10.078;2024-03-23T15:15:48;2.58;;;0.85;;
20391;SDS011;10355;53.688;10.078;2024-03-23T15:18:30;1.92;;;0.70;;
20391;SDS011;10355;53.688;10.078;2024-03-23T15:21:12;2.75;;;0.60;;
20391;SDS011;10355;53.688;10.078;2024-03-23T15:23:54;1.45;;;0.60;;
20391;SDS011;10355;53.688;10.078;2024-03-23T15:26:36;1.65;;;0.50;;
20391;SDS011;10355;53.688;10.078;2024-03-23T15:29:17;1.23;;;0.68;;
20391;SDS011;10355;53.688;10.078;2024-03-23T15:31:59;2.22;;;0.60;;
20391;SDS011;10355;53.688;10.078;2024-03-23T15:34:40;1.27;;;0.40;;
20391;SDS011;10355;53.688;10.078;2024-03-23T15:37:22;3.92;;;0.70;;
20391;SDS011;10355;53.688;10.078;2024-03-23T15:40:04;1.83;;;0.60;;
20391;SDS011;10355;53.688;10.078;2024-03-23T15:42:46;1.05;;;0.40;;
20391;SDS011;10355;53.688;10.078;2024-03-23T15:45:27;2.28;;;0.40;;
20391;SDS011;10355;53.688;10.078;2024-03-23T15:48:09;1.42;;;0.52;;
20391;SDS011;10355;53.688;10.078;2024-03-23T15:50:50;1.95;;;0.50;;
20391;SDS011;10355;53.688;10.078;2024-03-23T15:53:32;1.88;;;0.52;;
20391;SDS011;10355;53.688;10.078;2024-03-23T15:56:15;0.70;;;0.57;;
20391;SDS011;10355;53.688;10.078;2024-03-23T15:58:56;1.70;;;0.60;;
20391;SDS011;10355;53.688;10.078;2024-03-23T16:01:45;2.15;;;0.57;;
20391;SDS011;10355;53.688;10.078;2024-03-23T16:04:27;1.35;;;0.60;;
20391;SDS011;10355;53.688;10.078;2024-03-23T16:07:08;2.92;;;0.60;;
20391;SDS011;10355;53.688;10.078;2024-03-23T16:09:50;3.28;;;0.60;;
20391;SDS011;10355;53.688;10.078;2024-03-23T16:12:32;1.23;;;0.50;;
20391;SDS011;10355;53.688;10.078;2024-03-23T16:15:14;0.20;;;0.20;;
20391;SDS011;10355;53.688;10.078;2024-03-23T16:17:54;1.15;;;0.50;;
20391;SDS011;10355;53.688;10.078;2024-03-23T16:20:36;2.30;;;0.60;;
20391;SDS011;10355;53.688;10.078;2024-03-23T16:23:17;1.65;;;0.40;;
20391;SDS011;10355;53.688;10.078;2024-03-23T16:25:59;1.05;;;0.45;;
20391;SDS011;10355;53.688;10.078;2024-03-23T16:28:42;1.52;;;0.55;;
20391;SDS011;10355;53.688;10.078;2024-03-23T16:31:26;1.58;;;0.60;;
20391;SDS011;10355;53.688;10.078;2024-03-23T16:34:06;2.05;;;0.50;;
20391;SDS011;10355;53.688;10.078;2024-03-23T16:36:48;1.98;;;0.65;;
20391;SDS011;10355;53.688;10.078;2024-03-23T16:39:29;2.88;;;0.60;;
20391;SDS011;10355;53.688;10.078;2024-03-23T16:42:11;3.90;;;0.60;;
20391;SDS011;10355;53.688;10.078;2024-03-23T16:44:53;1.55;;;0.55;;
20391;SDS011;10355;53.688;10.078;2024-03-23T16:47:35;1.92;;;0.70;;
20391;SDS011;10355;53.688;10.078;2024-03-23T16:50:16;1.15;;;0.60;;
20391;SDS011;10355;53.688;10.078;2024-03-23T16:52:57;0.60;;;0.40;;
20391;SDS011;10355;53.688;10.078;2024-03-23T16:55:38;1.33;;;0.40;;
20391;SDS011;10355;53.688;10.078;2024-03-23T16:58:20;0.85;;;0.40;;
20391;SDS011;10355;53.688;10.078;2024-03-23T17:01:03;1.10;;;0.45;;